createdAt,value
2022-07-30T00:06:07.895Z,18.23
2022-07-30T00:11:11.990Z,18.62
2022-07-30T00:16:16.248Z,18.60
2022-07-30T00:21:20.324Z,18.53
2022-07-30T00:26:39.762Z,18.54
2022-07-30T00:31:43.940Z,18.52
2022-07-30T00:36:46.766Z,18.59
2022-07-30T00:41:57.153Z,18.60
2022-07-30T00:47:01.868Z,18.30
2022-07-30T00:52:32.971Z,18.39
2022-07-30T00:57:36.336Z,18.50
2022-07-30T01:02:40.809Z,18.57
2022-07-30T01:07:43.815Z,18.55
2022-07-30T01:12:46.916Z,18.57
2022-07-30T01:17:53.128Z,18.57
2022-07-30T01:23:00.855Z,18.58
2022-07-30T01:28:10.449Z,18.53
2022-07-30T01:33:15.907Z,18.48
2022-07-30T01:38:23.023Z,18.36
2022-07-30T01:43:28.063Z,18.23
2022-07-30T01:48:31.466Z,18.17
2022-07-30T01:53:38.001Z,18.05
2022-07-30T01:58:43.379Z,17.81
2022-07-30T02:03:56.994Z,17.73
2022-07-30T02:14:32.378Z,17.72
2022-07-30T02:19:41.933Z,17.67
2022-07-30T02:24:45.418Z,17.53
2022-07-30T02:29:49.967Z,17.42
2022-07-30T02:34:55.002Z,17.37
2022-07-30T02:40:05.015Z,17.41
2022-07-30T02:45:10.540Z,17.31
2022-07-30T02:50:14.013Z,17.27
2022-07-30T02:55:17.378Z,17.29
2022-07-30T03:00:22.398Z,17.30
2022-07-30T03:05:27.321Z,17.34
2022-07-30T03:10:31.877Z,17.37
2022-07-30T03:15:39.479Z,17.49
2022-07-30T03:20:45.977Z,17.53
2022-07-30T03:25:55.798Z,17.54
2022-07-30T03:31:00.185Z,17.53
2022-07-30T03:36:03.950Z,17.38
2022-07-30T03:41:07.923Z,17.31
2022-07-30T03:46:13.295Z,17.25
2022-07-30T03:51:19.549Z,17.21
2022-07-30T03:56:22.748Z,17.08
2022-07-30T04:01:47.221Z,17.02
2022-07-30T04:07:03.970Z,16.83
2022-07-30T04:12:07.530Z,16.73
2022-07-30T04:17:14.828Z,16.90
2022-07-30T04:22:21.397Z,17.07
2022-07-30T04:27:25.361Z,17.06
2022-07-30T04:32:29.784Z,17.12
2022-07-30T04:38:10.476Z,17.11
2022-07-30T04:43:13.435Z,17.06
2022-07-30T04:48:17.681Z,17.14
2022-07-30T04:53:39.382Z,17.15
2022-07-30T04:58:45.000Z,17.03
2022-07-30T05:03:50.880Z,16.99
2022-07-30T05:08:53.980Z,17.08
2022-07-30T05:13:57.294Z,17.01
2022-07-30T05:19:02.431Z,17.25
2022-07-30T05:24:11.408Z,17.37
2022-07-30T05:29:20.023Z,17.45
2022-07-30T05:34:50.097Z,17.44
2022-07-30T05:40:02.938Z,17.31
2022-07-30T05:45:26.668Z,17.45
2022-07-30T05:50:31.233Z,17.57
2022-07-30T05:55:35.451Z,17.81
2022-07-30T06:00:57.328Z,17.92
2022-07-30T06:06:06.062Z,18.05
2022-07-30T06:11:09.917Z,17.99
2022-07-30T06:16:15.539Z,17.97
2022-07-30T06:21:20.527Z,17.94
2022-07-30T06:26:40.646Z,18.08
2022-07-30T06:31:44.181Z,18.40
2022-07-30T06:36:49.888Z,18.51
2022-07-30T06:41:55.990Z,18.91
2022-07-30T06:47:07.416Z,19.96
2022-07-30T06:52:18.560Z,21.03
2022-07-30T06:57:25.904Z,21.67
2022-07-30T07:02:29.244Z,22.21
2022-07-30T07:07:58.252Z,22.77
2022-07-30T07:13:03.099Z,23.02
2022-07-30T07:18:06.718Z,23.45
2022-07-30T07:23:16.345Z,23.77
2022-07-30T07:28:23.598Z,23.03
2022-07-30T07:33:36.985Z,23.12
2022-07-30T07:38:41.260Z,23.48
2022-07-30T07:43:44.303Z,23.77
2022-07-30T07:48:51.722Z,23.71
2022-07-30T07:54:20.303Z,23.80
2022-07-30T07:59:30.993Z,24.56
2022-07-30T08:04:46.518Z,24.59
2022-07-30T08:10:09.590Z,24.42
2022-07-30T08:15:32.512Z,24.71
2022-07-30T08:21:05.419Z,24.78
2022-07-30T08:26:11.799Z,24.67
2022-07-30T08:31:14.750Z,24.90
2022-07-30T08:36:18.944Z,24.43
2022-07-30T08:41:28.241Z,24.51
2022-07-30T08:46:33.066Z,24.31
2022-07-30T08:52:02.416Z,24.57
2022-07-30T08:57:18.032Z,24.80
2022-07-30T09:02:27.871Z,24.67
2022-07-30T09:07:41.009Z,24.45
2022-07-30T09:12:50.607Z,24.47
2022-07-30T09:17:57.082Z,24.64
2022-07-30T09:23:03.888Z,25.03
2022-07-30T09:28:32.176Z,25.12
2022-07-30T09:33:50.033Z,25.09
2022-07-30T09:39:11.560Z,25.46
2022-07-30T09:44:41.258Z,25.25
2022-07-30T09:49:47.119Z,25.24
2022-07-30T10:00:23.492Z,26.08
2022-07-30T10:05:50.669Z,25.83
2022-07-30T10:10:56.235Z,25.85
2022-07-30T10:16:00.637Z,26.14
2022-07-30T10:21:10.589Z,26.13
2022-07-30T10:26:43.155Z,26.38
2022-07-30T10:32:06.913Z,26.41
2022-07-30T10:37:13.324Z,26.80
2022-07-30T10:42:25.866Z,26.72
2022-07-30T10:47:33.430Z,26.32
2022-07-30T10:52:46.184Z,25.38
2022-07-30T10:57:59.653Z,25.38
2022-07-30T11:03:22.050Z,25.34
2022-07-30T11:08:42.971Z,25.92
2022-07-30T11:13:57.380Z,26.16
2022-07-30T11:19:56.325Z,26.16
2022-07-30T11:24:45.642Z,26.38
2022-07-30T11:29:51.373Z,26.38
2022-07-30T11:35:13.350Z,26.15
2022-07-30T11:40:16.296Z,26.31
2022-07-30T11:45:30.415Z,26.72
2022-07-30T11:50:35.784Z,26.59
2022-07-30T11:55:39.946Z,26.12
2022-07-30T12:00:47.779Z,25.91
2022-07-30T12:05:53.485Z,25.40
2022-07-30T12:11:01.840Z,25.08
2022-07-30T12:16:10.559Z,25.41
2022-07-30T12:21:16.185Z,25.39
2022-07-30T12:26:22.820Z,25.34
2022-07-30T12:31:25.794Z,24.80
2022-07-30T12:36:31.837Z,24.97
2022-07-30T12:41:43.786Z,25.06
2022-07-30T12:46:46.626Z,25.08
2022-07-30T12:51:57.484Z,24.84
2022-07-30T12:57:05.786Z,25.11
2022-07-30T13:02:08.926Z,24.92
2022-07-30T13:07:19.554Z,24.48
2022-07-30T13:12:22.350Z,24.43
2022-07-30T13:17:33.896Z,24.61
2022-07-30T13:22:41.740Z,24.51
2022-07-30T13:27:44.758Z,24.66
2022-07-30T13:32:47.535Z,24.27
2022-07-30T13:37:51.644Z,24.32
2022-07-30T13:42:54.654Z,24.57
2022-07-30T13:47:58.912Z,24.95
2022-07-30T13:53:03.130Z,25.19
2022-07-30T13:58:09.564Z,25.55
2022-07-30T14:03:12.769Z,25.40
2022-07-30T14:08:17.022Z,25.67
2022-07-30T14:13:21.134Z,25.79
2022-07-30T14:18:24.352Z,26.08
2022-07-30T14:23:28.545Z,26.30
2022-07-30T14:28:31.386Z,26.28
2022-07-30T14:33:34.260Z,26.22
2022-07-30T14:38:39.893Z,25.85
2022-07-30T14:43:42.838Z,25.79
2022-07-30T14:48:47.571Z,25.75
2022-07-30T14:53:51.883Z,25.64
2022-07-30T14:58:55.073Z,25.67
2022-07-30T15:03:58.594Z,25.47
2022-07-30T15:09:02.769Z,25.06
2022-07-30T15:14:05.526Z,24.97
2022-07-30T15:19:13.948Z,25.10
2022-07-30T15:24:18.131Z,25.25
2022-07-30T15:29:24.079Z,25.61
2022-07-30T15:34:27.429Z,25.36
2022-07-30T15:39:33.064Z,25.37
2022-07-30T15:44:36.003Z,25.10
2022-07-30T15:49:41.319Z,25.19
2022-07-30T15:54:45.792Z,25.50
2022-07-30T15:59:48.673Z,25.35
2022-07-30T16:04:51.770Z,24.94
2022-07-30T16:10:02.257Z,24.77
2022-07-30T16:15:05.809Z,24.61
2022-07-30T16:20:10.197Z,24.29
2022-07-30T16:25:14.327Z,24.23
2022-07-30T16:30:17.136Z,24.32
2022-07-30T16:35:19.985Z,24.34
2022-07-30T16:40:24.272Z,24.19
2022-07-30T16:45:28.842Z,24.34
2022-07-30T16:50:31.962Z,24.14
2022-07-30T16:55:36.095Z,24.47
2022-07-30T17:00:39.346Z,24.17
2022-07-30T17:05:45.248Z,24.24
2022-07-30T17:10:52.338Z,24.67
2022-07-30T17:15:55.237Z,24.56
2022-07-30T17:20:58.035Z,24.42
2022-07-30T17:26:02.253Z,24.50
2022-07-30T17:31:06.180Z,24.53
2022-07-30T17:36:09.413Z,24.78
2022-07-30T17:41:13.862Z,24.76
2022-07-30T17:46:17.236Z,24.14
2022-07-30T17:51:20.139Z,24.33
2022-07-30T17:56:26.903Z,24.22
2022-07-30T18:01:32.564Z,24.14
2022-07-30T18:06:36.064Z,23.66
2022-07-30T18:11:40.371Z,24.28
2022-07-30T18:16:45.246Z,24.22
2022-07-30T18:21:48.039Z,24.31
2022-07-30T18:26:52.289Z,24.22
2022-07-30T18:31:55.021Z,24.11
2022-07-30T18:36:58.885Z,24.23
2022-07-30T18:42:03.698Z,23.90
2022-07-30T18:47:07.021Z,23.83
2022-07-30T18:52:09.957Z,23.87
2022-07-30T18:57:14.682Z,23.81
2022-07-30T19:02:20.570Z,23.81
2022-07-30T19:07:24.370Z,23.83
2022-07-30T19:12:32.801Z,23.72
2022-07-30T19:17:46.081Z,23.73
2022-07-30T19:22:49.779Z,23.58
2022-07-30T19:27:53.928Z,23.84
2022-07-30T19:33:02.746Z,23.40
2022-07-30T19:43:30.900Z,23.43
2022-07-30T19:48:37.394Z,23.52
2022-07-30T19:53:44.560Z,23.29
2022-07-30T19:58:49.647Z,23.44
2022-07-30T20:03:55.862Z,23.52
2022-07-30T20:09:04.504Z,23.46
2022-07-30T20:14:08.834Z,23.45
2022-07-30T20:19:15.744Z,23.58
2022-07-30T20:24:18.872Z,23.58
2022-07-30T20:29:23.189Z,23.69
2022-07-30T20:34:27.545Z,23.64
2022-07-30T20:39:30.597Z,23.61
2022-07-30T20:44:35.213Z,23.54
2022-07-30T20:49:38.969Z,23.48
2022-07-30T20:54:45.335Z,23.47
2022-07-30T20:59:49.631Z,23.34
2022-07-30T21:04:56.709Z,23.43
2022-07-30T21:10:02.498Z,23.40
2022-07-30T21:15:15.688Z,23.23
2022-07-30T21:20:28.006Z,23.28
2022-07-30T21:25:32.954Z,23.20
2022-07-30T21:30:37.603Z,23.29
2022-07-30T21:35:41.864Z,23.25
2022-07-30T21:40:45.775Z,23.28
2022-07-30T21:45:54.893Z,23.30
2022-07-30T21:50:58.509Z,23.33
2022-07-30T21:56:01.654Z,23.26
2022-07-30T22:06:30.507Z,23.26
2022-07-30T22:11:33.908Z,23.24
2022-07-30T22:16:47.103Z,23.09
2022-07-30T22:21:50.831Z,23.10
2022-07-30T22:26:54.051Z,23.06
2022-07-30T22:31:58.585Z,22.91
2022-07-30T22:37:02.583Z,22.72
2022-07-30T22:42:06.904Z,22.60
2022-07-30T22:47:21.094Z,22.66
2022-07-30T22:52:27.293Z,22.51
2022-07-30T22:57:37.992Z,22.26
2022-07-30T23:02:43.593Z,22.19
2022-07-30T23:07:52.467Z,22.15
2022-07-30T23:12:31.871Z,23.27
2022-07-30T23:12:56.446Z,22.11
2022-07-30T23:18:02.793Z,22.24
2022-07-30T23:23:05.576Z,22.25
2022-07-30T23:28:08.382Z,22.26
2022-07-30T23:33:12.524Z,22.26
2022-07-30T23:38:15.326Z,22.03
2022-07-30T23:43:18.730Z,22.14
2022-07-30T23:48:22.948Z,22.08
2022-07-30T23:53:26.609Z,22.16
2022-07-30T23:58:30.223Z,22.12
